Airfield :
LOGIN :

Register | Disclaimer

   EN    FR    IT 

 










Legend :    VFR   Marginal VFR   IFR   Intensive IFR   Very Intensive IFR
Visi :
Ceiling :
>= 8 km
>= 3000ft
5 to 8 km
1000 to 3000 ft
1500m to 5 km
500 to 1000 ft
800 to 1500m
200 to 500 ft
< 800m
< 200 ft
Symbols :   Thunderstorms  Fog  Heavy snow  Heavy precipitations  Wind > 20 kt
SIGMETs :     Misc.  Thunderstorms  Icing  Turbulence  Mountain Waves  Volcanic Ashes







- Airport Elevation : 37 ft


EHVL - Vlieland Heliport

CURRENT METAR :
  • 251155Z AUTO 25017KT 9999 FEW008 BKN010 BKN014 10/08 Q1009 GRN

EXPIRED METARs :
  • 251148Z AUTO 25017KT 9999 FEW008 BKN040 OVC046 11/08 Q1009 BLU
  • 251129Z AUTO 26017KT 9999 SCT008 BKN010 BKN048 11/08 Q1009 GRN
  • 251125Z AUTO 26017KT 9999 FEW008 SCT010 BKN048 11/09 Q1009 GRN
  • 251055Z AUTO 25016KT 9999 FEW007 SCT009 BKN010 10/08 Q1010 GRN
  • 251025Z AUTO 26016KT 9999 FEW007 BKN008 BKN010 10/08 Q1009 GRN
  • 251006Z AUTO 26016KT 9999 SCT006 BKN007 BKN009 10/08 Q1009 YLO
  • 250959Z AUTO 26014KT 9999 SCT006 BKN008 OVC044 10/08 Q1009 YLO
  • 250955Z AUTO 27013KT 9999 FEW006 SCT007 OVC045 10/08 Q1009 GRN
  • 250942Z AUTO 27013KT 9999 BKN007 OVC009 09/08 Q1009 GRN
  • 250935Z AUTO 28014KT 9999 FEW006 BKN007 BKN009 09/08 Q1009 GRN
  • 250925Z AUTO 28013KT 9999 SCT006 BKN007 OVC009 09/08 Q1009 YLO
  • 250913Z AUTO 28013KT 9999 FEW005 BKN007 OVC009 09/07 Q1009 GRN

Expired Forecast.
No reported NOTAMs for that airfield.



MET'MAP, your aeronautical weather chart ! - Copyright ORBIFLY December 2007 - Disclaimer

ORBIFLY MET'MAP TEAM :

Programming & Development : Alexandra Zaïnal
Concept & Development : Baudouin d'Aumeries
Co-Development & Prog : Marc-Olivier Méhu
Technical & hardware support : Manuel Goepfert

Contact : metmap@orbifly.com




SOURCES & CREDITS :

   NOAA